Time;durP1;ratioP1;P1;durP2;ratioP2;P2;SDS_P1;SDS_P2;PMS_P1;PMS_P2;Temp;Humidity;BMP_temperature;BMP_pressure;BME280_temperature;BME280_humidity;BME280_pressure;Samples;Min_cycle;Max_cycle;Signal;HPM_P1;HPM_P2
2022/01/23 17:36:11;;;;;;;28.17;23.33;;;6.00;83.30;;;;;;5103346;27;1341091;-51
2022/01/23 17:38:41;;;;;;;28.00;23.73;;;6.00;84.40;;;;;;5091020;28;20044;-54
2022/01/23 17:41:09;;;;;;;29.92;23.30;;;6.00;84.50;;;;;;5090933;28;20074;-54
2022/01/23 17:43:35;;;;;;;26.65;22.40;;;6.10;84.20;;;;;;5094522;28;20048;-53
2022/01/23 17:46:05;;;;;;;26.63;21.40;;;6.20;83.60;;;;;;5109949;28;20032;-55
2022/01/23 17:48:48;;;;;;;24.77;21.50;;;6.30;82.60;;;;;;5100058;28;20040;-54
2022/01/23 17:51:15;;;;;;;27.65;22.85;;;6.30;82.30;;;;;;5097266;28;20040;-51
2022/01/23 17:53:42;;;;;;;29.50;23.85;;;6.40;82.60;;;;;;5104624;28;20040;-53
2022/01/23 17:56:09;;;;;;;30.92;23.35;;;6.40;82.10;;;;;;5109066;28;20028;-54
2022/01/23 17:58:35;;;;;;;28.20;22.48;;;6.50;82.00;;;;;;5103675;28;20047;-52
2022/01/23 18:01:02;;;;;;;28.48;22.10;;;6.50;81.50;;;;;;5091041;28;20059;-55
2022/01/23 18:03:29;;;;;;;30.08;25.50;;;6.60;81.20;;;;;;5096081;28;20429;-53
2022/01/23 18:05:59;;;;;;;27.77;22.83;;;6.50;81.00;;;;;;5103980;28;20052;-54
2022/01/23 18:08:26;;;;;;;27.20;22.05;;;6.60;80.80;;;;;;5110076;28;20135;-54
2022/01/23 18:10:53;;;;;;;26.65;22.92;;;6.60;80.60;;;;;;5110050;28;20560;-56
2022/01/23 18:13:23;;;;;;;26.27;23.50;;;6.60;80.80;;;;;;5104453;28;20123;-53
2022/01/23 18:15:50;;;;;;;32.38;24.38;;;6.70;81.10;;;;;;5095010;28;20055;-54
2022/01/23 18:18:17;;;;;;;28.63;23.75;;;6.70;81.00;;;;;;5103910;28;20047;-53
2022/01/23 18:20:43;;;;;;;28.48;23.80;;;6.70;81.10;;;;;;5090191;28;20106;-55
2022/01/23 18:23:10;;;;;;;30.65;24.45;;;6.70;81.80;;;;;;5089893;28;20059;-49
2022/01/23 18:25:44;;;;;;;32.47;25.17;;;6.70;80.90;;;;;;5108620;28;20106;-49
2022/01/23 18:28:11;;;;;;;33.13;26.92;;;6.70;81.40;;;;;;5109576;28;20407;-49
2022/01/23 18:30:37;;;;;;;27.10;24.20;;;6.70;81.20;;;;;;5103839;28;20043;-48
2022/01/23 18:33:21;;;;;;;30.67;23.85;;;6.70;80.40;;;;;;5109275;28;20036;-50
2022/01/23 18:35:48;;;;;;;27.45;22.67;;;6.70;80.50;;;;;;5106876;28;20048;-52
2022/01/23 18:38:18;;;;;;;29.80;23.60;;;6.70;79.70;;;;;;5119167;28;20036;-52
2022/01/23 18:40:45;;;;;;;30.83;27.35;;;6.70;79.70;;;;;;5109191;28;20120;-52
2022/01/23 18:43:12;;;;;;;28.70;25.45;;;6.70;80.60;;;;;;5108440;28;20039;-51
2022/01/23 18:45:38;;;;;;;31.05;24.40;;;6.70;80.50;;;;;;5093792;28;20047;-52
2022/01/23 18:48:05;;;;;;;27.98;23.88;;;6.70;80.30;;;;;;5094377;28;20046;-52
2022/01/23 18:50:34;;;;;;;27.20;23.13;;;6.70;80.10;;;;;;5089651;28;20028;-53
2022/01/23 18:53:06;;;;;;;26.38;21.90;;;6.70;80.30;;;;;;5095128;28;20105;-53
2022/01/23 18:55:37;;;;;;;29.07;22.83;;;6.70;80.40;;;;;;5083588;28;20044;-47
2022/01/23 18:58:14;;;;;;;25.08;21.73;;;6.70;80.30;;;;;;5093921;28;20609;-52
2022/01/23 19:00:47;;;;;;;25.77;22.83;;;6.70;80.70;;;;;;5091008;28;20043;-51
2022/01/23 19:05:45;;;;;;;29.65;24.83;;;6.60;81.20;;;;;;5091364;28;20043;-54
2022/01/23 19:08:16;;;;;;;28.60;23.60;;;6.70;81.40;;;;;;5095054;28;20040;-53
2022/01/23 19:10:43;;;;;;;26.88;22.75;;;6.70;80.90;;;;;;5090869;28;20487;-46
2022/01/23 19:13:11;;;;;;;31.13;25.15;;;6.70;81.30;;;;;;5092699;28;20039;-50
2022/01/23 19:15:38;;;;;;;32.60;25.08;;;6.70;80.80;;;;;;5093947;28;20510;-53
2022/01/23 19:18:05;;;;;;;27.08;22.10;;;6.70;81.90;;;;;;5092743;28;20032;-54
2022/01/23 19:20:32;;;;;;;21.48;19.10;;;6.70;80.80;;;;;;5084904;28;20041;-51
2022/01/23 19:23:01;;;;;;;21.85;19.15;;;6.70;80.80;;;;;;5078734;28;20036;-57
2022/01/23 19:25:28;;;;;;;28.42;23.15;;;6.70;80.90;;;;;;5094702;28;20070;-53
2022/01/23 19:27:58;;;;;;;37.55;29.42;;;6.70;80.70;;;;;;5078580;28;20032;-50
2022/01/23 19:30:25;;;;;;;26.27;21.13;;;6.60;80.70;;;;;;5092453;28;20039;-50
2022/01/23 19:32:52;;;;;;;35.00;26.63;;;6.70;80.30;;;;;;5094596;28;20042;-52
2022/01/23 19:35:22;;;;;;;33.83;26.13;;;6.70;80.30;;;;;;5088696;28;20056;-54
2022/01/23 19:37:48;;;;;;;31.92;26.50;;;6.70;80.80;;;;;;5095269;28;20040;-50
2022/01/23 19:40:20;;;;;;;29.77;25.65;;;6.70;81.10;;;;;;5095078;28;20047;-54
2022/01/23 19:45:20;;;;;;;31.70;25.48;;;6.70;80.50;;;;;;5094565;28;20067;-52
2022/01/23 19:47:57;;;;;;;26.55;23.75;;;6.70;80.80;;;;;;5094337;28;20191;-56
2022/01/23 19:50:24;;;;;;;31.15;25.15;;;6.70;80.60;;;;;;5087021;28;20045;-53
2022/01/23 19:52:51;;;;;;;28.17;24.77;;;6.70;81.00;;;;;;5075092;28;20037;-48
2022/01/23 19:55:18;;;;;;;27.70;22.10;;;6.60;81.30;;;;;;5087375;28;20048;-52
2022/01/23 19:57:45;;;;;;;29.17;23.40;;;6.70;81.20;;;;;;5093046;28;20143;-47
2022/01/23 20:00:18;;;;;;;28.67;24.25;;;6.70;81.50;;;;;;5094218;28;20044;-52
2022/01/23 20:02:45;;;;;;;27.98;22.38;;;6.70;81.80;;;;;;5094222;28;20040;-50
2022/01/23 20:05:12;;;;;;;22.20;19.02;;;6.70;81.60;;;;;;5075803;28;20040;-48
2022/01/23 20:07:39;;;;;;;24.05;20.80;;;6.70;80.80;;;;;;5075542;28;20423;-52
2022/01/23 20:10:23;;;;;;;22.10;18.85;;;6.70;80.80;;;;;;5089503;28;20495;-52
2022/01/23 20:12:52;;;;;;;25.10;19.77;;;6.70;81.20;;;;;;5075001;28;20067;-55
2022/01/23 20:15:19;;;;;;;24.02;18.88;;;6.70;81.80;;;;;;5074619;28;20091;-54
2022/01/23 20:17:46;;;;;;;21.75;18.23;;;6.70;81.50;;;;;;5074181;28;20053;-51
2022/01/23 20:20:13;;;;;;;20.83;17.58;;;6.70;81.20;;;;;;5074368;28;20051;-52
2022/01/23 20:22:40;;;;;;;23.10;18.08;;;6.70;80.80;;;;;;5088084;28;20097;-50
2022/01/23 20:25:07;;;;;;;23.48;18.25;;;6.70;81.10;;;;;;5092211;28;20483;-55
2022/01/23 20:27:34;;;;;;;23.00;17.52;;;6.70;81.00;;;;;;5086337;28;20063;-50
2022/01/23 20:30:01;;;;;;;20.40;17.08;;;6.70;80.60;;;;;;5074272;28;20518;-51
2022/01/23 20:32:29;;;;;;;24.17;19.73;;;6.70;81.20;;;;;;5074360;28;20504;-53
2022/01/23 20:34:57;;;;;;;24.50;20.05;;;6.80;80.60;;;;;;5073982;28;20056;-55
2022/01/23 20:37:24;;;;;;;21.23;18.30;;;6.70;81.40;;;;;;5093734;28;20476;-53
2022/01/23 20:39:51;;;;;;;23.77;17.67;;;6.70;81.00;;;;;;5093511;28;20059;-52
2022/01/23 20:42:18;;;;;;;20.98;16.45;;;6.70;80.70;;;;;;5089939;28;20101;-54
2022/01/23 20:44:51;;;;;;;20.33;17.52;;;6.70;80.70;;;;;;5093092;28;20086;-54
2022/01/23 20:47:18;;;;;;;19.27;17.17;;;6.70;80.80;;;;;;5091128;28;20111;-52
2022/01/23 20:49:45;;;;;;;21.35;17.90;;;6.70;80.50;;;;;;5092006;28;20032;-53
2022/01/23 20:52:31;;;;;;;19.63;17.00;;;6.70;80.80;;;;;;5086314;28;20431;-51
2022/01/23 20:54:58;;;;;;;21.25;17.42;;;6.70;81.40;;;;;;5089787;28;20050;-52
2022/01/23 20:57:25;;;;;;;21.25;17.58;;;6.70;81.40;;;;;;5091761;28;20407;-50
2022/01/23 20:59:52;;;;;;;19.88;17.15;;;6.70;81.30;;;;;;5090058;28;20043;-52
2022/01/23 21:02:18;;;;;;;19.10;16.70;;;6.70;80.90;;;;;;5080421;28;20040;-55
2022/01/23 21:04:45;;;;;;;18.55;16.08;;;6.70;81.30;;;;;;5073464;28;20484;-55
2022/01/23 21:07:14;;;;;;;20.67;16.25;;;6.70;80.90;;;;;;5085498;28;20036;-53
2022/01/23 21:09:41;;;;;;;19.23;16.38;;;6.70;80.60;;;;;;5072023;28;20049;-50
2022/01/23 21:12:10;;;;;;;19.75;16.60;;;6.70;80.80;;;;;;5082367;28;20388;-55
2022/01/23 21:17:35;;;;;;;18.90;15.63;;;6.70;81.20;;;;;;5082970;28;20044;-52
2022/01/23 21:41:29;;;;;;;19.45;17.08;;;6.70;81.80;;;;;;5083547;28;20041;-50
2022/01/23 21:43:56;;;;;;;21.02;18.67;;;6.60;82.20;;;;;;5092310;28;20503;-47
2022/01/23 21:46:23;;;;;;;21.40;17.67;;;6.70;81.60;;;;;;5090293;28;20093;-54
2022/01/23 21:48:50;;;;;;;20.77;17.65;;;6.70;82.50;;;;;;5086099;28;20115;-50
2022/01/23 21:51:18;;;;;;;22.95;17.70;;;6.70;81.50;;;;;;5092592;28;20050;-47
2022/01/23 21:53:45;;;;;;;23.05;18.40;;;6.70;81.80;;;;;;5079105;28;20464;-52
2022/01/23 21:56:12;;;;;;;17.63;14.98;;;6.70;82.00;;;;;;5092682;28;20472;-51
2022/01/23 21:58:39;;;;;;;17.05;14.63;;;6.70;81.10;;;;;;5092530;28;20044;-50
2022/01/23 22:01:06;;;;;;;18.60;15.90;;;6.70;81.50;;;;;;5090161;28;20522;-51
2022/01/23 22:03:33;;;;;;;18.48;16.35;;;6.70;80.90;;;;;;5092266;28;20040;-49
2022/01/23 22:06:00;;;;;;;17.80;15.93;;;6.70;81.40;;;;;;5091604;28;20085;-50
2022/01/23 22:08:27;;;;;;;20.30;17.02;;;6.70;81.40;;;;;;5092155;28;20497;-48
2022/01/23 22:16:13;;;;;;;22.23;16.52;;;6.70;81.30;;;;;;5073080;28;20075;-48
2022/01/23 22:18:41;;;;;;;20.00;16.02;;;6.70;81.60;;;;;;5073241;28;20044;-55
2022/01/23 22:21:10;;;;;;;20.08;16.42;;;6.70;81.40;;;;;;5092927;28;20040;-51
2022/01/23 22:28:52;;;;;;;20.35;17.48;;;6.70;81.60;;;;;;5081115;28;20046;-51
2022/01/23 22:31:19;;;;;;;20.17;17.90;;;6.70;82.20;;;;;;5095955;28;20071;-48
2022/01/23 22:33:47;;;;;;;20.77;16.73;;;6.70;82.10;;;;;;5095158;28;20056;-56
2022/01/23 22:36:14;;;;;;;18.45;16.27;;;6.70;82.00;;;;;;5109108;28;20127;-49
2022/01/23 22:38:43;;;;;;;20.25;17.48;;;6.70;82.00;;;;;;5095746;28;20062;-53
2022/01/23 22:41:10;;;;;;;20.73;17.55;;;6.70;82.70;;;;;;5091238;28;20042;-52
2022/01/23 22:44:00;;;;;;;20.27;18.08;;;6.70;82.40;;;;;;5095652;28;20115;-49
2022/01/23 22:46:31;;;;;;;20.58;18.20;;;6.70;82.60;;;;;;5075749;28;20384;-50
2022/01/23 22:48:58;;;;;;;23.25;18.50;;;6.70;82.60;;;;;;5105776;28;20441;-50
2022/01/23 22:51:25;;;;;;;20.90;18.70;;;6.70;82.60;;;;;;5095460;28;20512;-49
2022/01/23 22:53:51;;;;;;;20.65;18.45;;;6.70;82.40;;;;;;5092939;28;20055;-52
2022/01/23 22:56:18;;;;;;;23.75;18.92;;;6.70;83.10;;;;;;5095248;28;20036;-53
2022/01/23 22:58:45;;;;;;;23.00;18.27;;;6.70;82.90;;;;;;5095409;28;20397;-49
2022/01/23 23:01:12;;;;;;;23.83;18.30;;;6.70;83.80;;;;;;5075575;28;20039;-52
2022/01/23 23:03:39;;;;;;;22.40;19.10;;;6.70;82.90;;;;;;5075891;28;20045;-53
2022/01/23 23:06:06;;;;;;;21.25;18.95;;;6.70;83.10;;;;;;5095205;28;20047;-50
2022/01/23 23:08:33;;;;;;;19.70;17.60;;;6.70;82.50;;;;;;5095277;28;20056;-53
2022/01/23 23:11:02;;;;;;;21.30;18.08;;;6.70;82.20;;;;;;5095198;28;20036;-52
2022/01/23 23:13:29;;;;;;;22.13;19.83;;;6.70;82.30;;;;;;5095247;28;20047;-54
2022/01/23 23:16:08;;;;;;;20.85;18.20;;;6.70;82.30;;;;;;5095124;28;20044;-50
2022/01/23 23:18:44;;;;;;;19.67;17.50;;;6.70;82.20;;;;;;5095069;28;20051;-51
2022/01/23 23:21:11;;;;;;;19.75;17.65;;;6.70;82.50;;;;;;5088433;28;20055;-53
2022/01/23 23:23:38;;;;;;;21.90;17.38;;;6.70;82.60;;;;;;5093868;28;20059;-54
2022/01/23 23:26:05;;;;;;;20.80;18.60;;;6.70;82.50;;;;;;5093642;28;20145;-53
2022/01/23 23:28:32;;;;;;;23.15;20.67;;;6.70;82.70;;;;;;5093519;28;20040;-55
2022/01/23 23:30:59;;;;;;;23.77;20.88;;;6.70;83.20;;;;;;5094836;28;20040;-52
2022/01/23 23:33:26;;;;;;;23.70;20.33;;;6.70;83.00;;;;;;5094959;28;20040;-53
2022/01/23 23:35:53;;;;;;;24.73;19.85;;;6.70;82.70;;;;;;5093881;28;20047;-48
2022/01/23 23:38:19;;;;;;;21.90;19.58;;;6.70;82.90;;;;;;5079503;28;20357;-47
2022/01/23 23:41:41;;;;;;;25.20;21.63;;;6.70;82.70;;;;;;5075157;28;20048;-50
2022/01/23 23:46:22;;;;;;;25.10;20.75;;;6.70;83.20;;;;;;5091005;28;20071;-47
2022/01/23 23:48:55;;;;;;;23.20;20.80;;;6.70;83.00;;;;;;5093047;28;20150;-49
2022/01/23 23:51:22;;;;;;;25.42;20.63;;;6.70;82.80;;;;;;5075056;28;20476;-54
2022/01/23 23:53:49;;;;;;;25.13;21.10;;;6.70;82.90;;;;;;5089990;28;20467;-50
2022/01/23 23:56:16;;;;;;;24.52;20.77;;;6.70;83.00;;;;;;5094246;28;20040;-53
2022/01/23 23:58:43;;;;;;;22.23;19.77;;;6.70;82.80;;;;;;5102645;28;20485;-50
